Nearby METAR Reports

 

KMTN - Baltimore/Martin, Maryland, USA
Distance from station: SSE 8mi, 13km
Updated: Mon, 24-Nov-2014 3:42am EST
Overcast
Overcast
 Wind from SSE
Wind: SSE 29 mph , 46 km/h, Gust: 37 mph , 59 km/h
Temperature: 59°F , 15°C
Dew Point: 59°F , 15°C
Humidity: 100%
Barometer: 29.69 inHg , 1005.4 hPa
Clouds: Overcast
Visibility: 7 miles , 11 km
Cloud details: Overcast 600 ft
2014/11/24 08:42 KMTN 240842Z AUTO 15025G32KT 7SM OVC006 15/15 A2969 RMK AO2
KDMH - Baltimore/Dwntwn, Maryland, USA
Distance from station: SW 12mi, 19km
Updated: Mon, 24-Nov-2014 2:54am EST

 
Temperature: 61°F , 16°C
Dew Point: 59°F , 15°C
Humidity: 94%
Barometer: 29.70 inHg , 1005.8 hPa
2014/11/24 07:54 KDMH 240754Z AUTO 16/15 A2970 RMK AO1 SLP056 P0001 T01560150
 
KBWI - Balto/Wash Intl, Maryland, USA
Distance from station: SSW 20mi, 33km
Updated: Mon, 24-Nov-2014 2:54am EST
Light drizzle, Overcast
Light drizzle, Overcast
 Wind from SSE
Wind: SSE 16 mph , 26 km/h, Gust: 23 mph , 37 km/h
Temperature: 61°F , 16°C
Dew Point: 59°F , 15°C
Humidity: 94%
Barometer: 29.67 inHg , 1004.7 hPa
Summary: Light Drizzle
Clouds: Overcast
Visibility: 8 miles , 13 km
Cloud details: Mostly cloudy 600 ft
Overcast 1100 ft
2014/11/24 07:54 KBWI 240754Z 16014G20KT 8SM -DZ BKN006 OVC011 16/15 A2967 RMK AO2 PK WND 17028/0729 RAE0656DZB49 SLP046 P0001 T01560150
KDMW - Carroll Cnty, Maryland, USA
Distance from station: WNW 30mi, 48km
Updated: Mon, 24-Nov-2014 3:40am EST
Heavy rain, Overcast
Heavy rain, Overcast
 Wind from S
Wind: S 18 mph , 30 km/h, Gust: 26 mph , 43 km/h
Temperature: 59°F , 15°C
Dew Point: 57°F , 14°C
Humidity: 94%
Barometer: 29.63 inHg , 1003.4 hPa
Summary: Heavy rain
Clouds: Overcast
Visibility: 7 miles , 11 km
Cloud details: Overcast 700 ft
2014/11/24 08:40 KDMW 240840Z AUTO 17016G23KT 7SM +RA OVC007 15/14 A2963 RMK AO2 P0001
 
KNAK - Annapolis/Naval, Maryland, USA
Distance from station: S 30mi, 48km
Updated: Mon, 24-Nov-2014 3:40am EST
Mist, Overcast
Mist, Overcast
 Wind from S
Wind: S 23 mph , 37 km/h, Gust: 35 mph , 56 km/h
Temperature: 55°F , 13°C
Dew Point: 55°F , 13°C
Humidity: 100%
Barometer: 29.68 inHg , 1005.1 hPa
Summary: Mist
Clouds: Overcast
Visibility: 2 1/2 miles , 2 km
Cloud details: Overcast 500 ft
2014/11/24 08:40 KNAK 240840Z AUTO 17020G30KT 2 1/2SM BR OVC005 13/13 A2968 RMK AO2 PK WND 17034/0800 T01330128
KW29 - Stevensville, Maryland, USA
Distance from station: SSE 31mi, 50km
Updated: Mon, 24-Nov-2014 3:42am EST

 Wind from S
Wind: S 21 mph , 33 km/h, Gust: 29 mph , 46 km/h
Temperature: 61°F , 16°C
Dew Point: 59°F , 15°C
Humidity: 94%
Barometer: 29.68 inHg , 1005.1 hPa
Visibility: 10 miles , 16 km
2014/11/24 08:42 KW29 240842Z AUTO 18018G25KT 10SM 16/15 A2968 RMK AO1
 
KCGS - College Park, Maryland, USA
Distance from station: SW 38mi, 61km
Updated: Mon, 24-Nov-2014 3:40am EST
Overcast
Overcast
 Wind from S
Wind: S 8 mph , 13 km/h
Temperature: 63°F , 17°C
Dew Point: 63°F , 17°C
Humidity: 100%
Barometer: 29.66 inHg , 1004.4 hPa
Clouds: Overcast
Visibility: 10 miles , 16 km
Cloud details: Mostly cloudy 1300 ft
Overcast 2000 ft
2014/11/24 08:40 KCGS 240840Z AUTO 18007KT 10SM BKN013 OVC020 17/17 A2966 RMK AO1
KGAI - Gaithersburg, Maryland, USA
Distance from station: WSW 40mi, 65km
Updated: Mon, 24-Nov-2014 3:35am EST
Overcast
Overcast
 Wind from S
Wind: S 14 mph , 22 km/h, Gust: 25 mph , 41 km/h
Temperature: 63°F , 17°C
Dew Point: 59°F , 15°C
Humidity: 88%
Barometer: 29.68 inHg , 1005.1 hPa
Clouds: Overcast
Visibility: 10 miles , 16 km
Cloud details: Overcast 800 ft
2014/11/24 08:35 KGAI 240835Z 17012G22KT 10SM OVC008 17/15 A2968 RMK AO1
 
KTHV - York, Pennsylvania, USA
Distance from station: NNW 40mi, 65km
Updated: Mon, 24-Nov-2014 2:53am EST
Light rain, Overcast
Light rain, Overcast
 Wind from S
Wind: S 9 mph , 15 km/h, Gust: 20 mph , 31 km/h
Temperature: 61°F , 16°C
Dew Point: 57°F , 14°C
Humidity: 88%
Barometer: 29.64 inHg , 1003.7 hPa
Summary: Light rain
Clouds: Overcast
Visibility: 9 miles , 14 km
Cloud details: Overcast 1200 ft
2014/11/24 07:53 KTHV 240753Z AUTO 17008G17KT 9SM -RA OVC012 16/14 A2964 RMK AO2 PK WND 15028/0731 SLP037 P0003 T01560139
KFDK - Frederick, Maryland, USA
Distance from station: W 47mi, 75km
Updated: Mon, 24-Nov-2014 3:40am EST
Light rain, Overcast
Light rain, Overcast
 Wind from S
Wind: S 8 mph , 13 km/h, Gust: 20 mph , 31 km/h
Temperature: 64°F , 18°C
Dew Point: 59°F , 15°C
Humidity: 83%
Barometer: 29.64 inHg , 1003.7 hPa
Summary: Light rain
Clouds: Overcast
Visibility: 7 miles , 11 km
Cloud details: Overcast 1100 ft
2014/11/24 08:40 KFDK 240840Z AUTO 17007G17KT 7SM -RA OVC011 18/15 A2964 RMK AO2 P0001
 
KESN - Easton/Newnam, Maryland, USA
Distance from station: SSE 48mi, 78km
Updated: Mon, 24-Nov-2014 3:56am EST
Overcast
Overcast
 Wind from SSW
Wind: SSW 28 mph , 44 km/h, Gust: 39 mph , 63 km/h
Temperature: 66°F , 19°C
Dew Point: 66°F , 19°C
Humidity: 100%
Barometer: 29.73 inHg , 1006.8 hPa
Clouds: Overcast
Visibility: 10 miles , 16 km
Cloud details: Overcast 1000 ft
2014/11/24 08:56 KESN 240856Z AUTO 20024G34KT 10SM OVC010 19/19 A2973 RMK AO2 60010 T01900190
KDCA - Washington/Natl, Washington D.c., USA
Distance from station: SW 49mi, 79km
Updated: Mon, 24-Nov-2014 3:48am EST
Overcast
Overcast
 Wind from S
Wind: S 14 mph , 22 km/h
Temperature: 61°F , 16°C
Dew Point: 55°F , 13°C
Humidity: 83%
Barometer: 29.66 inHg , 1004.4 hPa
Clouds: Overcast
Visibility: 10 miles , 16 km
Cloud details: Mostly cloudy 1500 ft
Overcast 3500 ft
2014/11/24 08:48 KDCA 240848Z 18012KT 10SM BKN015 OVC035 16/13 A2966 RMK AO2 RAE32 P0003
 
KLNS - Lancaster, Pennsylvania, USA
Distance from station: N 49mi, 79km
Updated: Mon, 24-Nov-2014 3:45am EST
Light rain, Overcast
Light rain, Overcast
 Wind from SSE
Wind: SSE 15 mph , 24 km/h
Temperature: 57°F , 14°C
Dew Point: 57°F , 14°C
Humidity: 100%
Barometer: 29.63 inHg , 1003.4 hPa
Summary: Light rain
Clouds: Overcast
Visibility: 7 miles , 11 km
Cloud details: Few Clouds 900 ft
Mostly cloudy 2400 ft
Overcast 4500 ft
2014/11/24 08:45 KLNS 240845Z AUTO 16013KT 7SM -RA FEW009 BKN024 OVC045 14/14 A2963 RMK AO2 P0004 T01440139
KILG - Wilmington, Delaware, USA
Distance from station: ENE 50mi, 81km
Updated: Mon, 24-Nov-2014 3:32am EST
Light rain, Overcast
Light rain, Overcast
 Wind from SSE
Wind: SSE 24 mph , 39 km/h, Gust: 33 mph , 54 km/h
Temperature: 57°F , 14°C
Dew Point: 55°F , 13°C
Humidity: 94%
Barometer: 29.70 inHg , 1005.8 hPa
Summary: Light rain
Clouds: Overcast
Visibility: 9 miles , 14 km
Cloud details: Overcast 400 ft
2014/11/24 08:32 KILG 240832Z AUTO 16021G29KT 9SM -RA OVC004 14/13 A2970 RMK AO2 PK WND 15032/0752 P0001 T01440133